Chickamauga, Tennessee
Current Conditions -  °F | °C
As of 4:53 PM on Friday 31 Oct 2014 (Local Time) from KCHA Reporting Station
Overcast Overcast  
Wind Chill: 56°   Ceiling: 3600
Heat Index: 56°   Visibility: 10mi
Dew Point: 43°   Wind: 14mph
Humidity: 62%   Direction: 310°NW
Pressure: 29.93"   Gusts: NA
Location:  35.0457°N, 85.3094°W
Report Text: KCHA 312053Z 31012KT 10SM BKN036 BKN045 OVC065 13/06 A2993 RMK AO2 SLP134 60000 T01330061 55004
Loading
Personal Weather Stations






























Interactive Weather Map
Tropical Storm Tracking
New forecast layout! Learn more

10-Day Weather Forecast

Advertisements
Track Severe Weather on mobile